Cabanillas del Campo, Spain
Current Conditions -  °F | °C
As of 4:00 PM on Friday 19 Dec 2014 (Local Time) from LETO Reporting Station
Clear Clear  
Wind Chill: 55°   Ceiling: Unl
Heat Index: 55°   Visibility: 6mi
Dew Point: 46°   Wind: 2mph
Humidity: 72%   Direction: NA
Pressure: 30.39"   Gusts: NA
Location:  40.63°N, 3.23°W
Report Text: LETO 191500Z VRB02KT CAVOK 13/08 Q1029 NOSIG
Loading
Personal Weather Stations






























Interactive Weather Map New forecast layout! Learn more

10-Day Weather Forecast

Advertisements
Track Severe Weather on mobile